sensor_id;sensor_type;location;lat;lon;timestamp;P1;durP1;ratioP1;P2;durP2;ratioP2
76903;SDS011;65865;51.698;-0.292;2023-01-19T00:01:26;0.88;;;0.50;;
76903;SDS011;65865;51.698;-0.292;2023-01-19T00:03:52;1.02;;;0.50;;
76903;SDS011;65865;51.698;-0.292;2023-01-19T00:06:18;2.08;;;0.82;;
76903;SDS011;65865;51.698;-0.292;2023-01-19T00:08:44;2.05;;;0.55;;
76903;SDS011;65865;51.698;-0.292;2023-01-19T00:11:12;0.75;;;0.45;;
76903;SDS011;65865;51.698;-0.292;2023-01-19T00:13:39;2.13;;;0.60;;
76903;SDS011;65865;51.698;-0.292;2023-01-19T00:16:05;1.30;;;0.90;;
76903;SDS011;65865;51.698;-0.292;2023-01-19T00:18:32;1.20;;;0.60;;
76903;SDS011;65865;51.698;-0.292;2023-01-19T00:20:58;2.03;;;0.80;;
76903;SDS011;65865;51.698;-0.292;2023-01-19T00:23:24;1.35;;;0.77;;
76903;SDS011;65865;51.698;-0.292;2023-01-19T00:25:50;1.35;;;0.70;;
76903;SDS011;65865;51.698;-0.292;2023-01-19T00:28:18;1.55;;;0.70;;
76903;SDS011;65865;51.698;-0.292;2023-01-19T00:30:44;0.90;;;0.60;;
76903;SDS011;65865;51.698;-0.292;2023-01-19T00:33:10;0.88;;;0.50;;
76903;SDS011;65865;51.698;-0.292;2023-01-19T00:35:40;1.20;;;0.70;;
76903;SDS011;65865;51.698;-0.292;2023-01-19T00:38:06;2.40;;;0.60;;
76903;SDS011;65865;51.698;-0.292;2023-01-19T00:40:32;0.98;;;0.70;;
76903;SDS011;65865;51.698;-0.292;2023-01-19T00:43:01;1.55;;;0.60;;
76903;SDS011;65865;51.698;-0.292;2023-01-19T00:45:28;0.95;;;0.60;;
76903;SDS011;65865;51.698;-0.292;2023-01-19T00:47:54;0.80;;;0.60;;
76903;SDS011;65865;51.698;-0.292;2023-01-19T00:50:23;1.58;;;0.50;;
76903;SDS011;65865;51.698;-0.292;2023-01-19T00:52:50;0.82;;;0.60;;
76903;SDS011;65865;51.698;-0.292;2023-01-19T00:55:16;0.80;;;0.50;;
76903;SDS011;65865;51.698;-0.292;2023-01-19T00:57:42;0.95;;;0.60;;
76903;SDS011;65865;51.698;-0.292;2023-01-19T01:00:09;1.25;;;0.60;;
76903;SDS011;65865;51.698;-0.292;2023-01-19T01:02:36;0.90;;;0.50;;
76903;SDS011;65865;51.698;-0.292;2023-01-19T01:05:03;1.17;;;0.50;;
76903;SDS011;65865;51.698;-0.292;2023-01-19T01:07:30;1.23;;;0.50;;
76903;SDS011;65865;51.698;-0.292;2023-01-19T01:09:59;1.67;;;0.50;;
76903;SDS011;65865;51.698;-0.292;2023-01-19T01:12:25;1.15;;;0.70;;
76903;SDS011;65865;51.698;-0.292;2023-01-19T01:14:52;1.15;;;0.65;;
76903;SDS011;65865;51.698;-0.292;2023-01-19T01:17:19;0.90;;;0.50;;
76903;SDS011;65865;51.698;-0.292;2023-01-19T01:19:48;1.15;;;0.65;;
76903;SDS011;65865;51.698;-0.292;2023-01-19T01:22:16;1.02;;;0.73;;
76903;SDS011;65865;51.698;-0.292;2023-01-19T01:24:42;1.55;;;0.45;;
76903;SDS011;65865;51.698;-0.292;2023-01-19T01:27:08;1.48;;;0.55;;
76903;SDS011;65865;51.698;-0.292;2023-01-19T01:29:34;2.03;;;0.75;;
76903;SDS011;65865;51.698;-0.292;2023-01-19T01:32:00;1.08;;;0.60;;
76903;SDS011;65865;51.698;-0.292;2023-01-19T01:34:26;0.90;;;0.60;;
76903;SDS011;65865;51.698;-0.292;2023-01-19T01:36:52;1.33;;;0.60;;
76903;SDS011;65865;51.698;-0.292;2023-01-19T01:39:18;1.20;;;0.63;;
76903;SDS011;65865;51.698;-0.292;2023-01-19T01:41:46;1.25;;;0.50;;
76903;SDS011;65865;51.698;-0.292;2023-01-19T01:46:57;1.00;;;0.68;;
76903;SDS011;65865;51.698;-0.292;2023-01-19T01:49:23;1.13;;;0.60;;
76903;SDS011;65865;51.698;-0.292;2023-01-19T01:51:50;1.83;;;0.80;;
76903;SDS011;65865;51.698;-0.292;2023-01-19T01:54:19;1.85;;;0.50;;
76903;SDS011;65865;51.698;-0.292;2023-01-19T01:56:47;0.77;;;0.50;;
76903;SDS011;65865;51.698;-0.292;2023-01-19T01:59:17;0.60;;;0.52;;
76903;SDS011;65865;51.698;-0.292;2023-01-19T02:01:50;1.38;;;0.55;;
76903;SDS011;65865;51.698;-0.292;2023-01-19T02:04:36;1.23;;;0.50;;
76903;SDS011;65865;51.698;-0.292;2023-01-19T02:07:02;1.58;;;0.60;;
76903;SDS011;65865;51.698;-0.292;2023-01-19T02:09:47;0.98;;;0.65;;
76903;SDS011;65865;51.698;-0.292;2023-01-19T02:12:32;0.73;;;0.40;;
76903;SDS011;65865;51.698;-0.292;2023-01-19T02:15:17;1.08;;;0.60;;
76903;SDS011;65865;51.698;-0.292;2023-01-19T02:17:44;1.13;;;0.50;;
76903;SDS011;65865;51.698;-0.292;2023-01-19T02:20:10;1.30;;;0.68;;
76903;SDS011;65865;51.698;-0.292;2023-01-19T02:22:44;0.98;;;0.52;;
76903;SDS011;65865;51.698;-0.292;2023-01-19T02:25:12;1.00;;;0.60;;
76903;SDS011;65865;51.698;-0.292;2023-01-19T02:27:38;0.68;;;0.40;;
76903;SDS011;65865;51.698;-0.292;2023-01-19T02:30:05;1.15;;;0.45;;
76903;SDS011;65865;51.698;-0.292;2023-01-19T02:32:32;0.82;;;0.40;;
76903;SDS011;65865;51.698;-0.292;2023-01-19T02:34:58;0.80;;;0.40;;
76903;SDS011;65865;51.698;-0.292;2023-01-19T02:37:24;0.73;;;0.47;;
76903;SDS011;65865;51.698;-0.292;2023-01-19T02:39:51;0.82;;;0.47;;
76903;SDS011;65865;51.698;-0.292;2023-01-19T02:42:20;1.23;;;0.60;;
76903;SDS011;65865;51.698;-0.292;2023-01-19T02:44:47;0.82;;;0.40;;
76903;SDS011;65865;51.698;-0.292;2023-01-19T02:47:15;1.10;;;0.50;;
76903;SDS011;65865;51.698;-0.292;2023-01-19T02:49:41;0.60;;;0.40;;
76903;SDS011;65865;51.698;-0.292;2023-01-19T02:52:07;0.65;;;0.47;;
76903;SDS011;65865;51.698;-0.292;2023-01-19T03:07:36;0.50;;;0.50;;
76903;SDS011;65865;51.698;-0.292;2023-01-19T03:12:51;1.48;;;0.40;;
76903;SDS011;65865;51.698;-0.292;2023-01-19T03:17:48;1.08;;;0.60;;
76903;SDS011;65865;51.698;-0.292;2023-01-19T03:20:14;0.75;;;0.50;;
76903;SDS011;65865;51.698;-0.292;2023-01-19T03:22:42;1.17;;;0.55;;
76903;SDS011;65865;51.698;-0.292;2023-01-19T03:25:09;1.05;;;0.50;;
76903;SDS011;65865;51.698;-0.292;2023-01-19T03:27:37;0.77;;;0.47;;
76903;SDS011;65865;51.698;-0.292;2023-01-19T03:30:09;0.68;;;0.32;;
76903;SDS011;65865;51.698;-0.292;2023-01-19T03:32:37;0.60;;;0.40;;
76903;SDS011;65865;51.698;-0.292;2023-01-19T03:35:06;1.25;;;0.47;;
76903;SDS011;65865;51.698;-0.292;2023-01-19T03:37:36;0.50;;;0.50;;
76903;SDS011;65865;51.698;-0.292;2023-01-19T03:40:04;0.40;;;0.35;;
76903;SDS011;65865;51.698;-0.292;2023-01-19T03:42:31;0.80;;;0.38;;
76903;SDS011;65865;51.698;-0.292;2023-01-19T03:44:57;0.85;;;0.40;;
76903;SDS011;65865;51.698;-0.292;2023-01-19T03:47:25;0.47;;;0.47;;
76903;SDS011;65865;51.698;-0.292;2023-01-19T03:49:51;0.80;;;0.40;;
76903;SDS011;65865;51.698;-0.292;2023-01-19T03:52:24;0.75;;;0.40;;
76903;SDS011;65865;51.698;-0.292;2023-01-19T03:54:51;1.95;;;0.45;;
76903;SDS011;65865;51.698;-0.292;2023-01-19T03:57:17;0.80;;;0.50;;
76903;SDS011;65865;51.698;-0.292;2023-01-19T03:59:43;0.80;;;0.45;;
76903;SDS011;65865;51.698;-0.292;2023-01-19T04:02:09;0.60;;;0.40;;
76903;SDS011;65865;51.698;-0.292;2023-01-19T04:04:35;1.05;;;0.40;;
76903;SDS011;65865;51.698;-0.292;2023-01-19T04:07:01;0.93;;;0.47;;
76903;SDS011;65865;51.698;-0.292;2023-01-19T04:09:27;0.75;;;0.45;;
76903;SDS011;65865;51.698;-0.292;2023-01-19T04:11:53;0.40;;;0.40;;
76903;SDS011;65865;51.698;-0.292;2023-01-19T04:14:21;0.93;;;0.43;;
76903;SDS011;65865;51.698;-0.292;2023-01-19T04:16:47;1.08;;;0.30;;
76903;SDS011;65865;51.698;-0.292;2023-01-19T04:19:13;0.52;;;0.35;;
76903;SDS011;65865;51.698;-0.292;2023-01-19T04:21:39;0.50;;;0.40;;
76903;SDS011;65865;51.698;-0.292;2023-01-19T04:24:05;1.52;;;0.43;;
76903;SDS011;65865;51.698;-0.292;2023-01-19T04:26:31;0.80;;;0.20;;
76903;SDS011;65865;51.698;-0.292;2023-01-19T04:28:57;0.43;;;0.30;;
76903;SDS011;65865;51.698;-0.292;2023-01-19T04:31:23;0.60;;;0.30;;
76903;SDS011;65865;51.698;-0.292;2023-01-19T04:33:49;0.70;;;0.40;;
76903;SDS011;65865;51.698;-0.292;2023-01-19T04:36:15;0.80;;;0.30;;
76903;SDS011;65865;51.698;-0.292;2023-01-19T04:38:41;0.40;;;0.40;;
76903;SDS011;65865;51.698;-0.292;2023-01-19T04:41:07;0.85;;;0.40;;
76903;SDS011;65865;51.698;-0.292;2023-01-19T04:43:33;0.93;;;0.40;;
76903;SDS011;65865;51.698;-0.292;2023-01-19T04:45:59;2.15;;;0.38;;
76903;SDS011;65865;51.698;-0.292;2023-01-19T04:48:26;0.50;;;0.30;;
76903;SDS011;65865;51.698;-0.292;2023-01-19T04:50:52;0.45;;;0.30;;
76903;SDS011;65865;51.698;-0.292;2023-01-19T04:53:18;0.45;;;0.40;;
76903;SDS011;65865;51.698;-0.292;2023-01-19T04:55:44;0.50;;;0.22;;
76903;SDS011;65865;51.698;-0.292;2023-01-19T04:58:10;0.40;;;0.40;;
76903;SDS011;65865;51.698;-0.292;2023-01-19T05:00:36;0.68;;;0.43;;
76903;SDS011;65865;51.698;-0.292;2023-01-19T05:03:02;0.60;;;0.40;;
76903;SDS011;65865;51.698;-0.292;2023-01-19T05:05:28;0.32;;;0.20;;
76903;SDS011;65865;51.698;-0.292;2023-01-19T05:07:56;1.67;;;0.40;;
76903;SDS011;65865;51.698;-0.292;2023-01-19T05:10:22;0.40;;;0.40;;
76903;SDS011;65865;51.698;-0.292;2023-01-19T05:12:49;1.23;;;0.50;;
76903;SDS011;65865;51.698;-0.292;2023-01-19T05:15:15;0.30;;;0.30;;
76903;SDS011;65865;51.698;-0.292;2023-01-19T05:17:41;0.60;;;0.40;;
76903;SDS011;65865;51.698;-0.292;2023-01-19T05:20:08;0.47;;;0.35;;
76903;SDS011;65865;51.698;-0.292;2023-01-19T05:22:35;0.70;;;0.35;;
76903;SDS011;65865;51.698;-0.292;2023-01-19T05:25:02;0.70;;;0.70;;
76903;SDS011;65865;51.698;-0.292;2023-01-19T05:27:28;0.30;;;0.20;;
76903;SDS011;65865;51.698;-0.292;2023-01-19T05:29:54;0.80;;;0.40;;
76903;SDS011;65865;51.698;-0.292;2023-01-19T05:32:20;0.68;;;0.40;;
76903;SDS011;65865;51.698;-0.292;2023-01-19T05:34:46;0.55;;;0.30;;
76903;SDS011;65865;51.698;-0.292;2023-01-19T05:37:12;1.33;;;0.45;;
76903;SDS011;65865;51.698;-0.292;2023-01-19T05:39:38;0.38;;;0.30;;
76903;SDS011;65865;51.698;-0.292;2023-01-19T05:42:04;1.45;;;0.50;;
76903;SDS011;65865;51.698;-0.292;2023-01-19T05:44:30;0.68;;;0.30;;
76903;SDS011;65865;51.698;-0.292;2023-01-19T05:46:56;0.55;;;0.40;;
76903;SDS011;65865;51.698;-0.292;2023-01-19T05:49:22;0.30;;;0.30;;
76903;SDS011;65865;51.698;-0.292;2023-01-19T05:51:48;0.35;;;0.30;;
76903;SDS011;65865;51.698;-0.292;2023-01-19T05:54:14;0.30;;;0.30;;
76903;SDS011;65865;51.698;-0.292;2023-01-19T05:56:40;0.57;;;0.40;;
76903;SDS011;65865;51.698;-0.292;2023-01-19T05:59:07;0.60;;;0.40;;
76903;SDS011;65865;51.698;-0.292;2023-01-19T06:01:33;0.50;;;0.40;;
76903;SDS011;65865;51.698;-0.292;2023-01-19T06:04:00;1.13;;;0.35;;
76903;SDS011;65865;51.698;-0.292;2023-01-19T06:06:26;1.15;;;0.40;;
76903;SDS011;65865;51.698;-0.292;2023-01-19T06:08:53;0.50;;;0.50;;
76903;SDS011;65865;51.698;-0.292;2023-01-19T06:11:19;0.40;;;0.30;;
76903;SDS011;65865;51.698;-0.292;2023-01-19T06:13:45;1.00;;;0.30;;
76903;SDS011;65865;51.698;-0.292;2023-01-19T06:16:11;0.35;;;0.30;;
76903;SDS011;65865;51.698;-0.292;2023-01-19T06:18:38;1.13;;;0.40;;
76903;SDS011;65865;51.698;-0.292;2023-01-19T06:21:07;0.40;;;0.13;;
76903;SDS011;65865;51.698;-0.292;2023-01-19T06:23:35;0.50;;;0.40;;
76903;SDS011;65865;51.698;-0.292;2023-01-19T06:26:01;0.60;;;0.30;;
76903;SDS011;65865;51.698;-0.292;2023-01-19T06:28:28;0.75;;;0.55;;
76903;SDS011;65865;51.698;-0.292;2023-01-19T06:30:54;1.20;;;0.38;;
76903;SDS011;65865;51.698;-0.292;2023-01-19T06:33:21;0.40;;;0.30;;
76903;SDS011;65865;51.698;-0.292;2023-01-19T06:35:48;0.40;;;0.30;;
76903;SDS011;65865;51.698;-0.292;2023-01-19T06:38:14;0.52;;;0.30;;
76903;SDS011;65865;51.698;-0.292;2023-01-19T06:40:44;1.27;;;0.25;;
76903;SDS011;65865;51.698;-0.292;2023-01-19T06:43:10;0.73;;;0.40;;
76903;SDS011;65865;51.698;-0.292;2023-01-19T06:45:36;0.88;;;0.50;;
76903;SDS011;65865;51.698;-0.292;2023-01-19T06:48:03;0.40;;;0.30;;
76903;SDS011;65865;51.698;-0.292;2023-01-19T06:50:29;0.85;;;0.28;;
76903;SDS011;65865;51.698;-0.292;2023-01-19T06:52:55;0.50;;;0.30;;
76903;SDS011;65865;51.698;-0.292;2023-01-19T06:55:21;1.13;;;0.30;;
76903;SDS011;65865;51.698;-0.292;2023-01-19T06:57:47;0.40;;;0.30;;
76903;SDS011;65865;51.698;-0.292;2023-01-19T07:00:13;1.15;;;0.50;;
76903;SDS011;65865;51.698;-0.292;2023-01-19T07:02:40;0.73;;;0.30;;
76903;SDS011;65865;51.698;-0.292;2023-01-19T07:05:07;0.70;;;0.50;;
76903;SDS011;65865;51.698;-0.292;2023-01-19T07:07:33;0.45;;;0.35;;
76903;SDS011;65865;51.698;-0.292;2023-01-19T07:09:59;0.70;;;0.30;;
76903;SDS011;65865;51.698;-0.292;2023-01-19T07:12:25;0.50;;;0.38;;
76903;SDS011;65865;51.698;-0.292;2023-01-19T07:14:51;0.95;;;0.40;;
76903;SDS011;65865;51.698;-0.292;2023-01-19T07:17:17;0.60;;;0.50;;
76903;SDS011;65865;51.698;-0.292;2023-01-19T07:19:43;0.47;;;0.28;;
76903;SDS011;65865;51.698;-0.292;2023-01-19T07:22:10;0.75;;;0.50;;
76903;SDS011;65865;51.698;-0.292;2023-01-19T07:24:36;1.17;;;0.40;;
76903;SDS011;65865;51.698;-0.292;2023-01-19T07:27:02;0.70;;;0.47;;
76903;SDS011;65865;51.698;-0.292;2023-01-19T07:29:29;0.85;;;0.45;;
76903;SDS011;65865;51.698;-0.292;2023-01-19T07:31:55;0.80;;;0.40;;
76903;SDS011;65865;51.698;-0.292;2023-01-19T07:34:21;0.52;;;0.50;;
76903;SDS011;65865;51.698;-0.292;2023-01-19T07:36:47;0.63;;;0.40;;
76903;SDS011;65865;51.698;-0.292;2023-01-19T07:39:13;1.55;;;0.40;;
76903;SDS011;65865;51.698;-0.292;2023-01-19T07:41:40;0.70;;;0.40;;
76903;SDS011;65865;51.698;-0.292;2023-01-19T07:44:06;0.93;;;0.20;;
76903;SDS011;65865;51.698;-0.292;2023-01-19T07:46:32;0.70;;;0.45;;
76903;SDS011;65865;51.698;-0.292;2023-01-19T07:48:58;0.90;;;0.40;;
76903;SDS011;65865;51.698;-0.292;2023-01-19T07:51:24;1.80;;;0.50;;
76903;SDS011;65865;51.698;-0.292;2023-01-19T07:53:52;0.85;;;0.55;;
76903;SDS011;65865;51.698;-0.292;2023-01-19T07:56:18;0.80;;;0.40;;
76903;SDS011;65865;51.698;-0.292;2023-01-19T07:58:44;0.52;;;0.38;;
76903;SDS011;65865;51.698;-0.292;2023-01-19T08:01:12;0.50;;;0.30;;
76903;SDS011;65865;51.698;-0.292;2023-01-19T08:03:38;0.50;;;0.20;;
76903;SDS011;65865;51.698;-0.292;2023-01-19T08:06:04;0.40;;;0.28;;
76903;SDS011;65865;51.698;-0.292;2023-01-19T08:08:31;1.13;;;0.40;;
76903;SDS011;65865;51.698;-0.292;2023-01-19T08:10:57;0.50;;;0.40;;
76903;SDS011;65865;51.698;-0.292;2023-01-19T08:13:23;0.50;;;0.50;;
76903;SDS011;65865;51.698;-0.292;2023-01-19T08:15:50;1.15;;;0.40;;
76903;SDS011;65865;51.698;-0.292;2023-01-19T08:18:16;2.00;;;0.60;;
76903;SDS011;65865;51.698;-0.292;2023-01-19T08:20:43;4.25;;;0.45;;
76903;SDS011;65865;51.698;-0.292;2023-01-19T08:23:10;0.85;;;0.35;;
76903;SDS011;65865;51.698;-0.292;2023-01-19T08:25:37;0.60;;;0.40;;
76903;SDS011;65865;51.698;-0.292;2023-01-19T08:28:05;0.52;;;0.32;;
76903;SDS011;65865;51.698;-0.292;2023-01-19T08:30:31;2.85;;;0.43;;
76903;SDS011;65865;51.698;-0.292;2023-01-19T08:32:57;0.43;;;0.30;;
76903;SDS011;65865;51.698;-0.292;2023-01-19T08:35:36;0.95;;;0.40;;
76903;SDS011;65865;51.698;-0.292;2023-01-19T08:38:03;1.58;;;0.40;;
76903;SDS011;65865;51.698;-0.292;2023-01-19T08:40:29;1.05;;;0.40;;
76903;SDS011;65865;51.698;-0.292;2023-01-19T08:42:59;0.75;;;0.40;;
76903;SDS011;65865;51.698;-0.292;2023-01-19T08:45:30;0.93;;;0.47;;
76903;SDS011;65865;51.698;-0.292;2023-01-19T08:47:57;0.70;;;0.22;;
76903;SDS011;65865;51.698;-0.292;2023-01-19T08:50:27;0.82;;;0.47;;
76903;SDS011;65865;51.698;-0.292;2023-01-19T08:53:00;0.75;;;0.47;;
76903;SDS011;65865;51.698;-0.292;2023-01-19T08:55:27;1.77;;;0.47;;
76903;SDS011;65865;51.698;-0.292;2023-01-19T08:57:53;0.68;;;0.40;;
76903;SDS011;65865;51.698;-0.292;2023-01-19T09:00:22;1.10;;;0.50;;
76903;SDS011;65865;51.698;-0.292;2023-01-19T09:02:49;0.50;;;0.50;;
76903;SDS011;65865;51.698;-0.292;2023-01-19T09:05:15;0.55;;;0.22;;
76903;SDS011;65865;51.698;-0.292;2023-01-19T09:07:44;1.48;;;0.60;;
76903;SDS011;65865;51.698;-0.292;2023-01-19T09:10:12;1.15;;;0.43;;
76903;SDS011;65865;51.698;-0.292;2023-01-19T09:12:38;0.40;;;0.30;;
76903;SDS011;65865;51.698;-0.292;2023-01-19T09:15:05;1.75;;;0.70;;
76903;SDS011;65865;51.698;-0.292;2023-01-19T09:17:31;1.00;;;0.40;;
76903;SDS011;65865;51.698;-0.292;2023-01-19T09:19:57;0.82;;;0.47;;
76903;SDS011;65865;51.698;-0.292;2023-01-19T09:22:23;1.38;;;0.52;;
76903;SDS011;65865;51.698;-0.292;2023-01-19T09:24:49;0.68;;;0.50;;
76903;SDS011;65865;51.698;-0.292;2023-01-19T09:27:15;0.82;;;0.63;;
76903;SDS011;65865;51.698;-0.292;2023-01-19T09:29:41;0.85;;;0.50;;
76903;SDS011;65865;51.698;-0.292;2023-01-19T09:32:14;1.25;;;0.52;;
76903;SDS011;65865;51.698;-0.292;2023-01-19T09:34:40;0.63;;;0.50;;
76903;SDS011;65865;51.698;-0.292;2023-01-19T09:37:06;1.10;;;0.70;;
76903;SDS011;65865;51.698;-0.292;2023-01-19T09:39:32;0.55;;;0.30;;
76903;SDS011;65865;51.698;-0.292;2023-01-19T09:42:00;0.45;;;0.43;;
76903;SDS011;65865;51.698;-0.292;2023-01-19T09:44:27;1.13;;;0.60;;
76903;SDS011;65865;51.698;-0.292;2023-01-19T09:46:54;1.00;;;0.50;;
76903;SDS011;65865;51.698;-0.292;2023-01-19T09:49:23;1.00;;;0.40;;
76903;SDS011;65865;51.698;-0.292;2023-01-19T09:51:50;0.82;;;0.50;;
76903;SDS011;65865;51.698;-0.292;2023-01-19T09:54:18;0.85;;;0.60;;
76903;SDS011;65865;51.698;-0.292;2023-01-19T09:56:45;0.70;;;0.60;;
76903;SDS011;65865;51.698;-0.292;2023-01-19T10:02:11;2.70;;;0.50;;
76903;SDS011;65865;51.698;-0.292;2023-01-19T10:14:59;2.88;;;0.57;;
76903;SDS011;65865;51.698;-0.292;2023-01-19T10:17:37;1.83;;;0.60;;
76903;SDS011;65865;51.698;-0.292;2023-01-19T10:20:10;0.70;;;0.60;;
76903;SDS011;65865;51.698;-0.292;2023-01-19T10:22:39;1.13;;;0.70;;
76903;SDS011;65865;51.698;-0.292;2023-01-19T10:25:09;6.90;;;1.10;;
76903;SDS011;65865;51.698;-0.292;2023-01-19T10:27:39;1.25;;;0.43;;
76903;SDS011;65865;51.698;-0.292;2023-01-19T10:30:06;2.28;;;0.80;;
76903;SDS011;65865;51.698;-0.292;2023-01-19T10:32:33;2.50;;;0.57;;
76903;SDS011;65865;51.698;-0.292;2023-01-19T10:34:59;1.38;;;0.73;;
76903;SDS011;65865;51.698;-0.292;2023-01-19T10:37:30;0.75;;;0.40;;
76903;SDS011;65865;51.698;-0.292;2023-01-19T10:40:00;1.30;;;0.60;;
76903;SDS011;65865;51.698;-0.292;2023-01-19T10:42:28;2.83;;;0.90;;
76903;SDS011;65865;51.698;-0.292;2023-01-19T10:44:54;1.33;;;0.60;;
76903;SDS011;65865;51.698;-0.292;2023-01-19T10:47:23;1.27;;;0.77;;
76903;SDS011;65865;51.698;-0.292;2023-01-19T10:49:51;0.63;;;0.30;;
76903;SDS011;65865;51.698;-0.292;2023-01-19T10:54:46;1.48;;;1.00;;
76903;SDS011;65865;51.698;-0.292;2023-01-19T10:57:12;1.98;;;0.90;;
76903;SDS011;65865;51.698;-0.292;2023-01-19T10:59:47;1.13;;;0.70;;
76903;SDS011;65865;51.698;-0.292;2023-01-19T11:02:22;1.65;;;0.70;;
76903;SDS011;65865;51.698;-0.292;2023-01-19T11:04:50;1.02;;;0.60;;
76903;SDS011;65865;51.698;-0.292;2023-01-19T11:07:32;1.77;;;0.90;;
76903;SDS011;65865;51.698;-0.292;2023-01-19T11:12:41;2.13;;;0.95;;
76903;SDS011;65865;51.698;-0.292;2023-01-19T11:15:14;2.47;;;0.80;;
76903;SDS011;65865;51.698;-0.292;2023-01-19T11:17:41;1.52;;;0.90;;
76903;SDS011;65865;51.698;-0.292;2023-01-19T11:20:16;1.50;;;0.60;;
76903;SDS011;65865;51.698;-0.292;2023-01-19T11:22:43;1.60;;;0.68;;
76903;SDS011;65865;51.698;-0.292;2023-01-19T11:25:19;1.15;;;0.70;;
76903;SDS011;65865;51.698;-0.292;2023-01-19T11:27:47;1.33;;;0.60;;
76903;SDS011;65865;51.698;-0.292;2023-01-19T11:30:16;1.10;;;0.90;;
76903;SDS011;65865;51.698;-0.292;2023-01-19T11:32:44;1.10;;;0.90;;
76903;SDS011;65865;51.698;-0.292;2023-01-19T11:38:05;3.08;;;1.23;;
76903;SDS011;65865;51.698;-0.292;2023-01-19T11:40:32;1.20;;;0.60;;
76903;SDS011;65865;51.698;-0.292;2023-01-19T11:42:58;2.35;;;1.02;;
76903;SDS011;65865;51.698;-0.292;2023-01-19T11:45:25;1.20;;;0.90;;
76903;SDS011;65865;51.698;-0.292;2023-01-19T11:47:51;2.80;;;1.10;;
76903;SDS011;65865;51.698;-0.292;2023-01-19T11:50:24;1.90;;;0.90;;
76903;SDS011;65865;51.698;-0.292;2023-01-19T11:53:00;1.63;;;0.85;;
76903;SDS011;65865;51.698;-0.292;2023-01-19T11:55:38;2.03;;;1.05;;
76903;SDS011;65865;51.698;-0.292;2023-01-19T11:58:07;2.33;;;1.20;;
76903;SDS011;65865;51.698;-0.292;2023-01-19T12:00:39;1.10;;;0.80;;
76903;SDS011;65865;51.698;-0.292;2023-01-19T12:03:27;1.15;;;0.85;;
76903;SDS011;65865;51.698;-0.292;2023-01-19T12:05:59;1.15;;;0.90;;
76903;SDS011;65865;51.698;-0.292;2023-01-19T12:08:29;1.45;;;0.98;;
76903;SDS011;65865;51.698;-0.292;2023-01-19T12:10:56;2.08;;;0.90;;
76903;SDS011;65865;51.698;-0.292;2023-01-19T12:13:24;3.08;;;1.10;;
76903;SDS011;65865;51.698;-0.292;2023-01-19T12:15:55;3.97;;;0.98;;
76903;SDS011;65865;51.698;-0.292;2023-01-19T12:18:24;2.63;;;0.90;;
76903;SDS011;65865;51.698;-0.292;2023-01-19T12:20:52;2.10;;;1.25;;
76903;SDS011;65865;51.698;-0.292;2023-01-19T12:23:22;2.47;;;1.15;;
76903;SDS011;65865;51.698;-0.292;2023-01-19T12:28:19;1.70;;;0.95;;
76903;SDS011;65865;51.698;-0.292;2023-01-19T12:30:48;1.50;;;1.00;;
76903;SDS011;65865;51.698;-0.292;2023-01-19T12:35:58;1.10;;;0.85;;
76903;SDS011;65865;51.698;-0.292;2023-01-19T12:41:13;1.83;;;1.10;;
76903;SDS011;65865;51.698;-0.292;2023-01-19T12:43:39;1.42;;;1.05;;
76903;SDS011;65865;51.698;-0.292;2023-01-19T12:48:51;1.85;;;1.00;;
76903;SDS011;65865;51.698;-0.292;2023-01-19T12:51:26;1.63;;;1.00;;
76903;SDS011;65865;51.698;-0.292;2023-01-19T12:53:54;2.92;;;1.30;;
76903;SDS011;65865;51.698;-0.292;2023-01-19T12:56:28;1.25;;;0.80;;
76903;SDS011;65865;51.698;-0.292;2023-01-19T12:58:55;1.85;;;1.08;;
76903;SDS011;65865;51.698;-0.292;2023-01-19T13:01:21;1.83;;;1.27;;
76903;SDS011;65865;51.698;-0.292;2023-01-19T13:04:04;1.40;;;0.90;;
76903;SDS011;65865;51.698;-0.292;2023-01-19T13:09:28;1.42;;;0.90;;
76903;SDS011;65865;51.698;-0.292;2023-01-19T13:14:42;1.92;;;0.80;;
76903;SDS011;65865;51.698;-0.292;2023-01-19T13:19:48;1.52;;;0.90;;
76903;SDS011;65865;51.698;-0.292;2023-01-19T13:25:06;1.75;;;1.05;;
76903;SDS011;65865;51.698;-0.292;2023-01-19T13:27:33;1.67;;;0.82;;
76903;SDS011;65865;51.698;-0.292;2023-01-19T13:29:59;1.20;;;0.77;;
76903;SDS011;65865;51.698;-0.292;2023-01-19T13:32:26;2.33;;;0.90;;
76903;SDS011;65865;51.698;-0.292;2023-01-19T13:34:55;0.73;;;0.57;;
76903;SDS011;65865;51.698;-0.292;2023-01-19T13:37:26;1.38;;;0.93;;
76903;SDS011;65865;51.698;-0.292;2023-01-19T13:39:54;1.30;;;0.77;;
76903;SDS011;65865;51.698;-0.292;2023-01-19T13:42:41;1.10;;;0.60;;
76903;SDS011;65865;51.698;-0.292;2023-01-19T13:45:16;0.90;;;0.70;;
76903;SDS011;65865;51.698;-0.292;2023-01-19T13:47:47;2.83;;;0.60;;
76903;SDS011;65865;51.698;-0.292;2023-01-19T13:50:21;2.40;;;0.73;;
76903;SDS011;65865;51.698;-0.292;2023-01-19T13:52:48;3.95;;;0.93;;
76903;SDS011;65865;51.698;-0.292;2023-01-19T13:55:15;1.30;;;0.90;;
76903;SDS011;65865;51.698;-0.292;2023-01-19T13:57:43;4.85;;;1.10;;
76903;SDS011;65865;51.698;-0.292;2023-01-19T14:02:39;1.58;;;0.90;;
76903;SDS011;65865;51.698;-0.292;2023-01-19T14:10:37;1.23;;;0.80;;
76903;SDS011;65865;51.698;-0.292;2023-01-19T14:13:05;1.15;;;0.68;;
76903;SDS011;65865;51.698;-0.292;2023-01-19T14:15:37;1.38;;;0.77;;
76903;SDS011;65865;51.698;-0.292;2023-01-19T14:20:53;1.25;;;0.70;;
76903;SDS011;65865;51.698;-0.292;2023-01-19T14:26:04;1.83;;;0.65;;
76903;SDS011;65865;51.698;-0.292;2023-01-19T14:31:15;1.63;;;0.77;;
76903;SDS011;65865;51.698;-0.292;2023-01-19T14:33:42;1.48;;;0.70;;
76903;SDS011;65865;51.698;-0.292;2023-01-19T14:36:17;3.83;;;0.95;;
76903;SDS011;65865;51.698;-0.292;2023-01-19T14:38:45;2.45;;;0.90;;
76903;SDS011;65865;51.698;-0.292;2023-01-19T14:41:11;1.17;;;0.80;;
76903;SDS011;65865;51.698;-0.292;2023-01-19T14:43:46;1.15;;;0.63;;
76903;SDS011;65865;51.698;-0.292;2023-01-19T14:46:18;1.88;;;0.70;;
76903;SDS011;65865;51.698;-0.292;2023-01-19T14:48:46;1.05;;;0.40;;
76903;SDS011;65865;51.698;-0.292;2023-01-19T14:51:14;1.10;;;0.70;;
76903;SDS011;65865;51.698;-0.292;2023-01-19T14:53:44;2.05;;;0.80;;
76903;SDS011;65865;51.698;-0.292;2023-01-19T14:56:11;1.13;;;0.60;;
76903;SDS011;65865;51.698;-0.292;2023-01-19T15:01:14;1.50;;;0.70;;
76903;SDS011;65865;51.698;-0.292;2023-01-19T15:03:40;5.50;;;1.10;;
76903;SDS011;65865;51.698;-0.292;2023-01-19T15:06:08;1.30;;;0.70;;
76903;SDS011;65865;51.698;-0.292;2023-01-19T15:08:35;1.13;;;0.70;;
76903;SDS011;65865;51.698;-0.292;2023-01-19T15:11:21;2.50;;;0.70;;
76903;SDS011;65865;51.698;-0.292;2023-01-19T15:13:47;1.33;;;0.60;;
76903;SDS011;65865;51.698;-0.292;2023-01-19T15:16:13;1.05;;;0.68;;
76903;SDS011;65865;51.698;-0.292;2023-01-19T15:18:39;1.33;;;0.60;;
76903;SDS011;65865;51.698;-0.292;2023-01-19T15:21:09;0.80;;;0.47;;
76903;SDS011;65865;51.698;-0.292;2023-01-19T15:23:37;1.45;;;0.50;;
76903;SDS011;65865;51.698;-0.292;2023-01-19T15:26:03;1.42;;;0.40;;
76903;SDS011;65865;51.698;-0.292;2023-01-19T15:28:30;0.90;;;0.60;;
76903;SDS011;65865;51.698;-0.292;2023-01-19T15:30:57;1.77;;;0.80;;
76903;SDS011;65865;51.698;-0.292;2023-01-19T15:33:24;1.35;;;0.60;;
76903;SDS011;65865;51.698;-0.292;2023-01-19T15:35:50;1.45;;;0.57;;
76903;SDS011;65865;51.698;-0.292;2023-01-19T15:38:17;1.02;;;0.65;;
76903;SDS011;65865;51.698;-0.292;2023-01-19T15:40:43;1.10;;;0.70;;
76903;SDS011;65865;51.698;-0.292;2023-01-19T15:43:09;1.60;;;0.80;;
76903;SDS011;65865;51.698;-0.292;2023-01-19T15:48:20;1.05;;;0.60;;
76903;SDS011;65865;51.698;-0.292;2023-01-19T15:50:46;1.60;;;0.47;;
76903;SDS011;65865;51.698;-0.292;2023-01-19T15:53:13;1.55;;;0.70;;
76903;SDS011;65865;51.698;-0.292;2023-01-19T15:55:40;0.80;;;0.70;;
76903;SDS011;65865;51.698;-0.292;2023-01-19T15:58:06;1.83;;;0.60;;
76903;SDS011;65865;51.698;-0.292;2023-01-19T16:00:32;1.80;;;0.73;;
76903;SDS011;65865;51.698;-0.292;2023-01-19T16:02:59;1.92;;;0.68;;